sensor_id;sensor_type;location;lat;lon;timestamp;temperature;humidity
37032;DHT22;22940;52.266;10.536;2023-06-04T09:31:57;24.80;1.00
37032;DHT22;22940;52.266;10.536;2023-06-04T09:34:27;24.70;1.00
37032;DHT22;22940;52.266;10.536;2023-06-04T09:36:52;25.00;1.00
37032;DHT22;22940;52.266;10.536;2023-06-04T09:39:18;25.30;1.00
37032;DHT22;22940;52.266;10.536;2023-06-04T09:41:44;25.30;1.00
37032;DHT22;22940;52.266;10.536;2023-06-04T09:44:09;25.70;1.00
37032;DHT22;22940;52.266;10.536;2023-06-04T09:46:37;26.00;1.00
37032;DHT22;22940;52.266;10.536;2023-06-04T09:49:03;26.20;1.00
37032;DHT22;22940;52.266;10.536;2023-06-04T09:51:29;26.20;1.00
37032;DHT22;22940;52.266;10.536;2023-06-04T09:53:56;26.20;1.00
37032;DHT22;22940;52.266;10.536;2023-06-04T09:56:22;26.20;1.00
37032;DHT22;22940;52.266;10.536;2023-06-04T09:58:53;26.20;1.00
37032;DHT22;22940;52.266;10.536;2023-06-04T10:01:19;26.20;1.00
37032;DHT22;22940;52.266;10.536;2023-06-04T10:03:48;26.20;1.00
37032;DHT22;22940;52.266;10.536;2023-06-04T10:06:15;26.20;1.00
37032;DHT22;22940;52.266;10.536;2023-06-04T10:08:41;26.10;1.00
37032;DHT22;22940;52.266;10.536;2023-06-04T10:11:08;26.20;1.00
37032;DHT22;22940;52.266;10.536;2023-06-04T10:16:08;26.30;1.00
37032;DHT22;22940;52.266;10.536;2023-06-04T10:18:35;26.40;1.00
37032;DHT22;22940;52.266;10.536;2023-06-04T10:21:00;26.50;1.00
37032;DHT22;22940;52.266;10.536;2023-06-04T10:23:26;26.40;1.00
37032;DHT22;22940;52.266;10.536;2023-06-04T10:25:52;26.70;1.00
37032;DHT22;22940;52.266;10.536;2023-06-04T10:28:19;26.90;1.00
37032;DHT22;22940;52.266;10.536;2023-06-04T10:30:46;26.90;1.00
37032;DHT22;22940;52.266;10.536;2023-06-04T10:33:12;26.50;1.00
37032;DHT22;22940;52.266;10.536;2023-06-04T10:35:38;26.10;1.00
37032;DHT22;22940;52.266;10.536;2023-06-04T10:38:10;25.90;1.00
37032;DHT22;22940;52.266;10.536;2023-06-04T10:40:36;26.00;1.00
37032;DHT22;22940;52.266;10.536;2023-06-04T10:43:08;26.20;1.00
37032;DHT22;22940;52.266;10.536;2023-06-04T10:45:34;26.30;1.00
37032;DHT22;22940;52.266;10.536;2023-06-04T10:48:01;26.20;1.00
37032;DHT22;22940;52.266;10.536;2023-06-04T10:50:26;26.50;1.00
37032;DHT22;22940;52.266;10.536;2023-06-04T10:52:52;26.70;1.00
37032;DHT22;22940;52.266;10.536;2023-06-04T10:55:18;26.70;1.00
37032;DHT22;22940;52.266;10.536;2023-06-04T10:57:53;26.70;1.00
37032;DHT22;22940;52.266;10.536;2023-06-04T11:00:19;26.70;1.00
37032;DHT22;22940;52.266;10.536;2023-06-04T11:02:51;26.00;1.00
37032;DHT22;22940;52.266;10.536;2023-06-04T11:05:17;26.00;1.00
37032;DHT22;22940;52.266;10.536;2023-06-04T11:07:43;26.40;1.00
37032;DHT22;22940;52.266;10.536;2023-06-04T11:10:10;25.80;1.00
37032;DHT22;22940;52.266;10.536;2023-06-04T11:12:46;26.20;1.00
37032;DHT22;22940;52.266;10.536;2023-06-04T11:15:12;26.40;1.00
37032;DHT22;22940;52.266;10.536;2023-06-04T11:17:48;26.10;1.00
37032;DHT22;22940;52.266;10.536;2023-06-04T11:20:17;26.10;1.00
37032;DHT22;22940;52.266;10.536;2023-06-04T11:22:49;25.90;1.00
37032;DHT22;22940;52.266;10.536;2023-06-04T11:25:15;26.30;1.00
37032;DHT22;22940;52.266;10.536;2023-06-04T11:27:41;26.50;1.00
37032;DHT22;22940;52.266;10.536;2023-06-04T11:30:07;26.90;1.00
37032;DHT22;22940;52.266;10.536;2023-06-04T11:32:33;27.00;1.00
37032;DHT22;22940;52.266;10.536;2023-06-04T11:35:02;27.00;1.00
37032;DHT22;22940;52.266;10.536;2023-06-04T11:37:29;27.10;1.00
37032;DHT22;22940;52.266;10.536;2023-06-04T11:39:57;27.30;1.00
37032;DHT22;22940;52.266;10.536;2023-06-04T11:42:23;27.40;1.00
37032;DHT22;22940;52.266;10.536;2023-06-04T11:44:49;27.40;1.00
37032;DHT22;22940;52.266;10.536;2023-06-04T11:47:14;27.30;1.00
37032;DHT22;22940;52.266;10.536;2023-06-04T11:49:40;27.30;1.00
37032;DHT22;22940;52.266;10.536;2023-06-04T11:52:08;27.40;1.00
37032;DHT22;22940;52.266;10.536;2023-06-04T11:54:33;27.40;1.00
37032;DHT22;22940;52.266;10.536;2023-06-04T11:57:03;27.20;1.00
37032;DHT22;22940;52.266;10.536;2023-06-04T11:59:30;27.10;1.00
37032;DHT22;22940;52.266;10.536;2023-06-04T12:01:56;27.20;1.00
